RIC weather

Richmond International Airport
Richmond, Virginia, United States

Public forecast

Using degrees Fahrenheit for public forecast. Weather courtesy of forecast.io.

METAR (pilot weather report)

Retrieved 2019/04/23 07:54 UTC (2 hours ago):

KRIC 230754Z 00000KT 10SM CLR 11/08 A3008 RMK AO2 SLP189 T01110078

TAF (pilot weather forecast)

Retrieved 2019/04/23 06:22 UTC (3 hours ago):

TAF KRIC 230520Z 2306/2406 VRB03KT P6SM SKC FM231400 24004KT P6SM SKC FM231700 22006KT P6SM SCT050 FM240000 19007KT P6SM SKC